Time,TemperatureF,DewpointF,PressureIn,WindDirection,WindDirectionDegrees,WindSpeedMPH,WindSpeedGustMPH,Humidity,HourlyPrecipIn,Conditions,Clouds,dailyrainin,SoftwareType,DateUTC
2013-02-12 00:00:00,39.6,9.9,29.86,NNW,336,0.0,0.0,29,0.00,,---,0.00,VWS V14.01,2013-02-12 05:00:00,
2013-02-12 00:02:00,39.4,9.8,29.86,NNE,30,0.0,0.0,29,0.00,,---,0.00,VWS V14.01,2013-02-12 05:02:00,
2013-02-12 00:07:00,39.4,9.8,29.86,SSW,195,5.4,5.4,29,0.00,,---,0.00,VWS V14.01,2013-02-12 05:07:00,
2013-02-12 00:12:00,40.1,10.4,29.89,SW,232,5.4,5.8,29,0.00,,---,0.00,VWS V14.01,2013-02-12 05:12:00,
2013-02-12 00:17:00,40.8,11.0,29.89,SSE,162,2.7,3.1,29,0.00,,---,0.00,VWS V14.01,2013-02-12 05:17:00,
2013-02-12 00:22:00,40.6,10.9,29.89,SW,223,0.0,0.0,29,0.00,,---,0.00,VWS V14.01,2013-02-12 05:22:00,
2013-02-12 00:27:00,40.1,10.4,29.89,ESE,107,2.7,2.7,29,0.00,,---,0.00,VWS V14.01,2013-02-12 05:27:00,
2013-02-12 00:32:00,39.7,10.9,29.89,SSW,209,0.0,0.0,30,0.00,,---,0.00,VWS V14.01,2013-02-12 05:32:00,
2013-02-12 00:37:00,39.6,10.7,29.89,NE,52,2.7,2.7,30,0.00,,---,0.00,VWS V14.01,2013-02-12 05:37:00,
2013-02-12 00:42:00,39.7,10.9,29.89,SW,224,2.2,3.1,30,0.00,,---,0.00,VWS V14.01,2013-02-12 05:42:00,
2013-02-12 00:47:00,39.6,10.7,29.89,SW,227,8.3,10.5,30,0.00,,---,0.00,VWS V14.01,2013-02-12 05:47:00,
2013-02-12 00:52:00,39.7,10.9,29.89,SE,126,8.7,9.2,30,0.00,,---,0.00,VWS V14.01,2013-02-12 05:52:00,
2013-02-12 00:57:00,39.7,10.9,29.89,SSW,192,8.7,8.7,30,0.00,,---,0.00,VWS V14.01,2013-02-12 05:57:00,
2013-02-12 01:02:00,39.9,11.0,29.89,South,189,6.3,6.3,30,0.00,,---,0.00,VWS V14.01,2013-02-12 06:02:00,
2013-02-12 01:07:00,39.6,10.7,29.89,SW,225,3.1,3.1,30,0.00,,---,0.00,VWS V14.01,2013-02-12 06:07:00,
2013-02-12 01:12:00,39.0,11.0,29.89,South,170,2.2,3.1,31,0.00,,---,0.00,VWS V14.01,2013-02-12 06:12:00,
2013-02-12 01:17:00,38.7,10.6,29.89,West,275,3.6,3.6,31,0.00,,---,0.00,VWS V14.01,2013-02-12 06:17:00,
2013-02-12 01:22:00,38.7,10.6,29.89,SW,214,5.4,5.4,31,0.00,,---,0.00,VWS V14.01,2013-02-12 06:22:00,
2013-02-12 01:27:00,38.7,10.6,29.86,West,273,5.8,12.3,31,0.00,,---,0.00,VWS V14.01,2013-02-12 06:27:00,
2013-02-12 01:33:00,38.8,10.8,29.86,NNE,32,2.7,3.6,31,0.00,,---,0.00,VWS V14.01,2013-02-12 06:33:00,
2013-02-12 01:38:00,38.8,10.8,29.86,SW,228,5.4,5.4,31,0.00,,---,0.00,VWS V14.01,2013-02-12 06:38:00,
2013-02-12 01:43:00,38.8,10.8,29.89,SW,227,3.6,3.6,31,0.00,,---,0.00,VWS V14.01,2013-02-12 06:43:00,
2013-02-12 01:48:00,38.7,11.4,29.89,ESE,105,3.6,3.6,32,0.00,,---,0.00,VWS V14.01,2013-02-12 06:48:00,
2013-02-12 01:53:00,38.7,11.4,29.89,WSW,247,3.6,3.6,32,0.00,,---,0.00,VWS V14.01,2013-02-12 06:53:00,
2013-02-12 01:58:00,38.1,10.9,29.89,WSW,237,5.4,5.4,32,0.00,,---,0.00,VWS V14.01,2013-02-12 06:58:00,
2013-02-12 02:03:00,37.9,10.7,29.89,South,175,3.1,3.6,32,0.00,,---,0.00,VWS V14.01,2013-02-12 07:03:00,
2013-02-12 02:08:00,37.9,11.4,29.89,SSW,194,5.4,7.6,33,0.00,,---,0.00,VWS V14.01,2013-02-12 07:08:00,
2013-02-12 02:13:00,37.9,11.4,29.89,WSW,247,2.7,2.7,33,0.00,,---,0.00,VWS V14.01,2013-02-12 07:13:00,
2013-02-12 02:18:00,37.8,11.3,29.89,WSW,246,3.1,3.1,33,0.00,,---,0.00,VWS V14.01,2013-02-12 07:18:00,
2013-02-12 02:23:00,37.6,11.1,29.89,SSW,211,5.4,7.2,33,0.00,,---,0.00,VWS V14.01,2013-02-12 07:23:00,
2013-02-12 02:28:00,37.6,11.1,29.89,West,266,4.9,4.9,33,0.00,,---,0.00,VWS V14.01,2013-02-12 07:28:00,
2013-02-12 02:33:00,37.4,10.9,29.89,SSW,205,6.3,6.3,33,0.00,,---,0.00,VWS V14.01,2013-02-12 07:33:00,
2013-02-12 02:38:00,37.0,11.3,29.89,SSW,208,0.0,0.0,34,0.00,,---,0.00,VWS V14.01,2013-02-12 07:38:00,
2013-02-12 02:43:00,36.3,11.3,29.89,SSW,198,2.7,3.6,35,0.00,,---,0.00,VWS V14.01,2013-02-12 07:43:00,
2013-02-12 02:48:00,36.1,11.1,29.89,SW,216,3.6,3.6,35,0.00,,---,0.00,VWS V14.01,2013-02-12 07:48:00,
2013-02-12 02:53:00,35.8,11.4,29.89,SSE,150,7.6,13.2,36,0.00,,---,0.00,VWS V14.01,2013-02-12 07:53:00,
2013-02-12 02:58:00,36.5,12.1,29.89,SW,223,5.8,5.8,36,0.00,,---,0.00,VWS V14.01,2013-02-12 07:58:00,
2013-02-12 03:03:00,36.9,11.8,29.89,SSW,195,3.6,4.9,35,0.00,,---,0.00,VWS V14.01,2013-02-12 08:03:00,
2013-02-12 03:08:00,36.9,12.4,29.89,SSW,193,5.4,5.8,36,0.00,,---,0.00,VWS V14.01,2013-02-12 08:08:00,
2013-02-12 03:13:00,36.7,12.3,29.89,SW,227,0.0,0.0,36,0.00,,---,0.00,VWS V14.01,2013-02-12 08:13:00,
2013-02-12 03:18:00,36.3,11.9,29.89,WSW,247,5.4,8.7,36,0.00,,---,0.00,VWS V14.01,2013-02-12 08:18:00,
2013-02-12 03:23:00,36.7,12.3,29.89,SSW,199,4.0,4.5,36,0.00,,---,0.00,VWS V14.01,2013-02-12 08:23:00,
2013-02-12 03:28:00,36.7,11.6,29.89,SW,219,5.4,7.6,35,0.00,,---,0.00,VWS V14.01,2013-02-12 08:28:00,
2013-02-12 03:33:00,36.7,11.6,29.89,West,262,4.0,6.3,35,0.00,,---,0.00,VWS V14.01,2013-02-12 08:33:00,
2013-02-12 03:38:00,36.7,12.3,29.89,ESE,112,0.0,0.0,36,0.00,,---,0.00,VWS V14.01,2013-02-12 08:38:00,
2013-02-12 03:44:00,36.1,12.4,29.89,SE,134,5.4,11.9,37,0.00,,---,0.00,VWS V14.01,2013-02-12 08:44:00,
2013-02-12 03:49:00,36.1,11.8,29.89,SW,232,4.0,11.0,36,0.00,,---,0.00,VWS V14.01,2013-02-12 08:49:00,
2013-02-12 03:54:00,36.3,11.9,29.89,WSW,255,4.0,4.0,36,0.00,,---,0.00,VWS V14.01,2013-02-12 08:54:00,
2013-02-12 03:59:00,36.1,11.8,29.89,WSW,243,0.0,0.0,36,0.00,,---,0.00,VWS V14.01,2013-02-12 08:59:00,
2013-02-12 04:04:00,35.8,11.4,29.89,SSW,198,2.7,4.9,36,0.00,,---,0.00,VWS V14.01,2013-02-12 09:04:00,
2013-02-12 04:09:00,35.4,11.8,29.89,ENE,78,2.7,3.1,37,0.00,,---,0.00,VWS V14.01,2013-02-12 09:09:00,
2013-02-12 04:14:00,35.2,12.2,29.89,SSW,201,6.3,6.3,38,0.00,,---,0.00,VWS V14.01,2013-02-12 09:14:00,
2013-02-12 04:19:00,35.8,12.1,29.89,WSW,254,3.6,5.8,37,0.00,,---,0.00,VWS V14.01,2013-02-12 09:19:00,
2013-02-12 04:24:00,36.0,12.2,29.89,SW,235,0.0,0.0,37,0.00,,---,0.00,VWS V14.01,2013-02-12 09:24:00,
2013-02-12 04:29:00,35.6,11.9,29.89,SW,215,5.4,5.4,37,0.00,,---,0.00,VWS V14.01,2013-02-12 09:29:00,
2013-02-12 04:34:00,35.6,11.9,29.89,SW,218,3.6,3.6,37,0.00,,---,0.00,VWS V14.01,2013-02-12 09:34:00,
2013-02-12 04:39:00,35.1,12.0,29.89,West,259,0.0,0.0,38,0.00,,---,0.00,VWS V14.01,2013-02-12 09:39:00,
2013-02-12 04:44:00,34.7,12.3,29.92,West,262,0.0,2.2,39,0.00,,---,0.00,VWS V14.01,2013-02-12 09:44:00,
2013-02-12 04:49:00,34.3,12.5,29.92,SSE,163,2.7,2.7,40,0.00,,---,0.00,VWS V14.01,2013-02-12 09:49:00,
2013-02-12 04:54:00,34.5,12.7,29.92,East,87,0.0,0.0,40,0.00,,---,0.00,VWS V14.01,2013-02-12 09:54:00,
2013-02-12 04:59:00,34.0,12.2,29.92,NE,56,3.1,3.1,40,0.00,,---,0.00,VWS V14.01,2013-02-12 09:59:00,
2013-02-12 05:04:00,33.8,12.1,29.92,NE,56,4.0,4.0,40,0.00,,---,0.00,VWS V14.01,2013-02-12 10:04:00,
2013-02-12 05:09:00,33.8,12.1,29.92,ENE,75,0.0,3.1,40,0.00,,---,0.00,VWS V14.01,2013-02-12 10:09:00,
2013-02-12 05:14:00,34.0,12.2,29.92,SW,221,0.0,0.0,40,0.00,,---,0.00,VWS V14.01,2013-02-12 10:14:00,
2013-02-12 05:19:00,33.8,12.1,29.92,NNW,334,2.2,3.6,40,0.00,,---,0.00,VWS V14.01,2013-02-12 10:19:00,
2013-02-12 05:24:00,34.3,12.5,29.92,SE,128,3.1,3.1,40,0.00,,---,0.00,VWS V14.01,2013-02-12 10:24:00,
2013-02-12 05:29:00,34.3,12.5,29.92,SW,232,0.0,5.8,40,0.00,,---,0.00,VWS V14.01,2013-02-12 10:29:00,
2013-02-12 05:34:00,34.0,12.2,29.92,East,79,2.2,2.2,40,0.00,,---,0.00,VWS V14.01,2013-02-12 10:34:00,
2013-02-12 05:39:00,33.8,12.1,29.92,SW,230,2.7,2.7,40,0.00,,---,0.00,VWS V14.01,2013-02-12 10:39:00,
2013-02-12 05:44:00,33.6,11.9,29.92,South,173,3.6,4.9,40,0.00,,---,0.00,VWS V14.01,2013-02-12 10:44:00,
2013-02-12 05:49:00,34.0,11.1,29.92,SW,236,7.6,10.5,38,0.00,,---,0.00,VWS V14.01,2013-02-12 10:49:00,
2013-02-12 05:54:00,34.7,11.1,29.92,WNW,290,2.7,4.0,37,0.00,,---,0.00,VWS V14.01,2013-02-12 10:54:00,
2013-02-12 06:00:00,34.7,11.1,29.92,West,278,0.0,0.0,37,0.00,,---,0.00,VWS V14.01,2013-02-12 11:00:00,
2013-02-12 06:05:00,34.5,10.9,29.92,South,184,5.4,8.3,37,0.00,,---,0.00,VWS V14.01,2013-02-12 11:05:00,
2013-02-12 06:10:00,34.3,10.8,29.92,SW,234,3.1,10.1,37,0.00,,---,0.00,VWS V14.01,2013-02-12 11:10:00,
2013-02-12 06:15:00,34.5,10.9,29.92,SW,220,3.1,3.1,37,0.00,,---,0.00,VWS V14.01,2013-02-12 11:15:00,
2013-02-12 06:20:00,34.3,10.8,29.92,ESE,118,2.7,4.9,37,0.00,,---,0.00,VWS V14.01,2013-02-12 11:20:00,
2013-02-12 06:25:00,34.3,10.8,29.92,WSW,239,3.1,4.9,37,0.00,,---,0.00,VWS V14.01,2013-02-12 11:25:00,
2013-02-12 06:30:00,34.3,11.4,29.92,SSW,202,2.7,3.6,38,0.00,,---,0.00,VWS V14.01,2013-02-12 11:30:00,
2013-02-12 06:35:00,34.0,11.1,29.92,SW,235,3.1,4.0,38,0.00,,---,0.00,VWS V14.01,2013-02-12 11:35:00,
2013-02-12 06:40:00,34.2,10.6,29.92,SSW,195,3.1,3.6,37,0.00,,---,0.00,VWS V14.01,2013-02-12 11:40:00,
2013-02-12 06:45:00,34.2,10.6,29.92,South,187,2.7,2.7,37,0.00,,---,0.00,VWS V14.01,2013-02-12 11:45:00,
2013-02-12 06:50:00,33.8,10.9,29.92,South,184,0.0,0.0,38,0.00,,---,0.00,VWS V14.01,2013-02-12 11:50:00,
2013-02-12 06:55:00,33.1,11.4,29.95,South,184,0.0,0.0,40,0.00,,---,0.00,VWS V14.01,2013-02-12 11:55:00,
2013-02-12 07:00:00,32.7,11.1,29.95,SSW,212,8.1,9.2,40,0.00,,---,0.00,VWS V14.01,2013-02-12 12:00:00,
2013-02-12 07:05:00,33.3,11.6,29.95,South,191,4.0,4.0,40,0.00,,---,0.00,VWS V14.01,2013-02-12 12:05:00,
2013-02-12 07:10:00,33.1,11.4,29.92,SW,221,5.8,5.8,40,0.00,,---,0.00,VWS V14.01,2013-02-12 12:10:00,
2013-02-12 07:15:00,32.9,11.2,29.92,WNW,290,0.0,0.0,40,0.00,,---,0.00,VWS V14.01,2013-02-12 12:15:00,
2013-02-12 07:20:00,32.5,10.9,29.92,NE,52,3.1,3.1,40,0.00,,---,0.00,VWS V14.01,2013-02-12 12:20:00,
2013-02-12 07:25:00,32.2,11.1,29.92,NE,56,0.0,0.0,41,0.00,,---,0.00,VWS V14.01,2013-02-12 12:25:00,
2013-02-12 07:30:00,31.8,10.8,29.92,South,178,0.0,0.0,41,0.00,,---,0.00,VWS V14.01,2013-02-12 12:30:00,
2013-02-12 07:36:00,32.2,11.1,29.92,WSW,251,0.0,0.0,41,0.00,,---,0.00,VWS V14.01,2013-02-12 12:36:00,
2013-02-12 07:41:00,32.0,11.0,29.95,SSW,199,2.7,4.0,41,0.00,,---,0.00,VWS V14.01,2013-02-12 12:41:00,
2013-02-12 07:46:00,32.0,11.0,29.95,SW,233,0.0,0.0,41,0.00,,---,0.00,VWS V14.01,2013-02-12 12:46:00,
2013-02-12 07:51:00,32.0,11.0,29.95,WSW,237,0.0,0.0,41,0.00,,---,0.00,VWS V14.01,2013-02-12 12:51:00,
2013-02-12 07:56:00,32.2,11.1,29.95,West,260,3.1,5.8,41,0.00,,---,0.00,VWS V14.01,2013-02-12 12:56:00,
2013-02-12 08:01:00,32.4,11.3,29.95,SSE,151,0.0,0.0,41,0.00,,---,0.00,VWS V14.01,2013-02-12 13:01:00,
2013-02-12 08:06:00,32.4,11.3,29.95,SSW,193,3.6,4.0,41,0.00,,---,0.00,VWS V14.01,2013-02-12 13:06:00,
2013-02-12 08:11:00,32.7,11.6,29.95,SW,222,2.7,4.0,41,0.00,,---,0.00,VWS V14.01,2013-02-12 13:11:00,
2013-02-12 08:16:00,33.3,12.1,29.95,South,191,0.0,0.0,41,0.00,,---,0.00,VWS V14.01,2013-02-12 13:16:00,
2013-02-12 08:21:00,33.1,12.0,29.95,SW,222,3.1,3.6,41,0.00,,---,0.00,VWS V14.01,2013-02-12 13:21:00,
2013-02-12 08:26:00,33.1,12.0,29.95,WSW,258,2.2,8.7,41,0.00,,---,0.00,VWS V14.01,2013-02-12 13:26:00,
2013-02-12 08:31:00,33.4,11.7,29.95,SW,236,4.0,5.8,40,0.00,,---,0.00,VWS V14.01,2013-02-12 13:31:00,
2013-02-12 08:36:00,34.0,12.2,29.95,WSW,239,7.6,7.6,40,0.00,,---,0.00,VWS V14.01,2013-02-12 13:36:00,
2013-02-12 08:41:00,34.2,11.8,29.95,SW,225,4.9,5.8,39,0.00,,---,0.00,VWS V14.01,2013-02-12 13:41:00,
2013-02-12 08:46:00,34.5,11.5,29.95,SW,223,4.9,4.9,38,0.00,,---,0.00,VWS V14.01,2013-02-12 13:46:00,
2013-02-12 08:51:00,34.9,11.3,29.95,South,182,7.6,8.7,37,0.00,,---,0.00,VWS V14.01,2013-02-12 13:51:00,
2013-02-12 08:56:00,35.1,11.4,29.95,WSW,241,2.7,3.6,37,0.00,,---,0.00,VWS V14.01,2013-02-12 13:56:00,
2013-02-12 09:01:00,35.2,9.7,29.95,WSW,253,5.8,7.6,34,0.00,,---,0.00,VWS V14.01,2013-02-12 14:01:00,
2013-02-12 09:06:00,35.6,10.0,29.95,South,187,6.3,8.3,34,0.00,,---,0.00,VWS V14.01,2013-02-12 14:06:00,
2013-02-12 09:12:00,35.8,10.2,29.95,SW,225,5.8,7.6,34,0.00,,---,0.00,VWS V14.01,2013-02-12 14:12:00,
2013-02-12 09:17:00,36.1,9.8,29.95,South,182,11.9,11.9,33,0.00,,---,0.00,VWS V14.01,2013-02-12 14:17:00,
2013-02-12 09:22:00,36.5,10.1,29.95,SW,230,8.3,8.3,33,0.00,,---,0.00,VWS V14.01,2013-02-12 14:22:00,
2013-02-12 09:27:00,36.7,10.3,29.95,South,169,7.6,8.3,33,0.00,,---,0.00,VWS V14.01,2013-02-12 14:27:00,
2013-02-12 09:32:00,36.7,9.6,29.95,SSW,206,4.0,8.3,32,0.00,,---,0.00,VWS V14.01,2013-02-12 14:32:00,
2013-02-12 09:37:00,37.0,9.9,29.95,SSE,155,0.0,0.0,32,0.00,,---,0.00,VWS V14.01,2013-02-12 14:37:00,
2013-02-12 09:42:00,37.2,10.1,29.95,SW,216,7.2,12.3,32,0.00,,---,0.00,VWS V14.01,2013-02-12 14:42:00,
2013-02-12 09:47:00,37.6,9.7,29.95,SSW,209,8.3,8.7,31,0.00,,---,0.00,VWS V14.01,2013-02-12 14:47:00,
2013-02-12 09:52:00,37.9,10.0,29.95,South,188,8.3,8.3,31,0.00,,---,0.00,VWS V14.01,2013-02-12 14:52:00,
2013-02-12 09:57:00,38.1,10.2,29.95,SSW,197,5.8,5.8,31,0.00,,---,0.00,VWS V14.01,2013-02-12 14:57:00,
2013-02-12 10:02:00,38.5,10.5,29.95,SSE,155,7.6,10.1,31,0.00,,---,0.00,VWS V14.01,2013-02-12 15:02:00,
2013-02-12 10:07:00,38.7,10.6,29.95,WSW,244,2.2,5.8,31,0.00,,---,0.00,VWS V14.01,2013-02-12 15:07:00,
2013-02-12 10:12:00,39.0,10.2,29.95,SSW,195,10.1,11.0,30,0.00,,---,0.00,VWS V14.01,2013-02-12 15:12:00,
2013-02-12 10:17:00,39.2,10.4,29.95,SSW,210,6.3,6.3,30,0.00,,---,0.00,VWS V14.01,2013-02-12 15:17:00,
2013-02-12 10:22:00,39.6,10.7,29.95,SSW,193,4.0,6.3,30,0.00,,---,0.00,VWS V14.01,2013-02-12 15:22:00,
2013-02-12 10:28:00,39.9,11.0,29.95,SSW,204,7.6,7.6,30,0.00,,---,0.00,VWS V14.01,2013-02-12 15:28:00,
2013-02-12 10:33:00,40.1,10.4,29.95,SW,224,7.6,7.6,29,0.00,,---,0.00,VWS V14.01,2013-02-12 15:33:00,
2013-02-12 10:38:00,40.5,10.7,29.95,WSW,244,8.1,8.7,29,0.00,,---,0.00,VWS V14.01,2013-02-12 15:38:00,
2013-02-12 10:43:00,40.6,10.9,29.95,SSE,166,5.4,6.3,29,0.00,,---,0.00,VWS V14.01,2013-02-12 15:43:00,
2013-02-12 10:48:00,41.2,11.4,29.95,SW,218,4.9,8.3,29,0.00,,---,0.00,VWS V14.01,2013-02-12 15:48:00,
2013-02-12 10:53:00,41.7,11.8,29.95,SW,227,5.8,8.3,29,0.00,,---,0.00,VWS V14.01,2013-02-12 15:53:00,
2013-02-12 10:58:00,42.1,12.1,29.95,SSW,208,7.6,7.6,29,0.00,,---,0.00,VWS V14.01,2013-02-12 15:58:00,
2013-02-12 11:03:00,42.3,12.3,29.95,SSE,154,5.4,5.4,29,0.00,,---,0.00,VWS V14.01,2013-02-12 16:03:00,
2013-02-12 11:08:00,42.8,12.0,29.95,WSW,241,10.5,10.5,28,0.00,,---,0.00,VWS V14.01,2013-02-12 16:08:00,
2013-02-12 11:13:00,43.0,12.1,29.95,SW,226,8.7,10.1,28,0.00,,---,0.00,VWS V14.01,2013-02-12 16:13:00,
2013-02-12 11:18:00,43.2,12.3,29.95,SSE,160,4.0,5.4,28,0.00,,---,0.00,VWS V14.01,2013-02-12 16:18:00,
2013-02-12 11:23:00,43.3,12.4,29.95,SSW,211,4.0,4.0,28,0.00,,---,0.00,VWS V14.01,2013-02-12 16:23:00,
2013-02-12 11:28:00,44.2,13.2,29.92,SW,219,5.8,8.1,28,0.00,,---,0.00,VWS V14.01,2013-02-12 16:28:00,
2013-02-12 11:33:00,44.6,12.7,29.92,SW,222,5.8,5.8,27,0.00,,---,0.00,VWS V14.01,2013-02-12 16:33:00,
2013-02-12 11:38:00,45.1,13.2,29.92,WSW,237,8.3,8.3,27,0.00,,---,0.00,VWS V14.01,2013-02-12 16:38:00,
2013-02-12 11:43:00,45.5,13.5,29.92,East,93,3.6,3.6,27,0.00,,---,0.00,VWS V14.01,2013-02-12 16:43:00,
2013-02-12 11:48:00,45.9,12.0,29.92,SSW,207,8.7,12.3,25,0.00,,---,0.00,VWS V14.01,2013-02-12 16:48:00,
2013-02-12 11:53:00,45.9,12.0,29.92,SW,222,8.1,13.2,25,0.00,,---,0.00,VWS V14.01,2013-02-12 16:53:00,
2013-02-12 11:58:00,46.0,12.2,29.92,SW,223,8.7,8.7,25,0.00,,---,0.00,VWS V14.01,2013-02-12 16:58:00,
2013-02-12 12:03:00,46.0,12.2,29.92,SW,227,6.3,10.5,25,0.00,,---,0.00,VWS V14.01,2013-02-12 17:03:00,
2013-02-12 12:08:00,46.2,12.4,29.92,SSW,209,4.0,6.3,25,0.00,,---,0.00,VWS V14.01,2013-02-12 17:08:00,
2013-02-12 12:13:00,46.8,11.9,29.89,SSE,160,2.7,2.7,24,0.00,,---,0.00,VWS V14.01,2013-02-12 17:13:00,
2013-02-12 12:18:00,47.5,12.5,29.89,SSW,205,4.0,4.0,24,0.00,,---,0.00,VWS V14.01,2013-02-12 17:18:00,
2013-02-12 12:24:00,47.8,12.8,29.89,SSE,158,5.4,6.3,24,0.00,,---,0.00,VWS V14.01,2013-02-12 17:24:00,
2013-02-12 12:29:00,48.2,13.1,29.89,SSW,197,4.0,5.4,24,0.00,,---,0.00,VWS V14.01,2013-02-12 17:29:00,
2013-02-12 12:34:00,48.6,10.4,29.89,SW,230,6.3,12.3,21,0.00,,---,0.00,VWS V14.01,2013-02-12 17:34:00,
2013-02-12 12:39:00,48.4,10.3,29.89,SW,229,10.5,10.5,21,0.00,,---,0.00,VWS V14.01,2013-02-12 17:39:00,
2013-02-12 12:44:00,48.6,10.4,29.86,SW,225,5.8,10.1,21,0.00,,---,0.00,VWS V14.01,2013-02-12 17:44:00,
2013-02-12 12:49:00,48.7,10.6,29.86,SW,215,0.0,4.0,21,0.00,,---,0.00,VWS V14.01,2013-02-12 17:49:00,
2013-02-12 12:54:00,49.5,11.2,29.86,SW,226,8.1,8.1,21,0.00,,---,0.00,VWS V14.01,2013-02-12 17:54:00,
2013-02-12 12:59:00,49.8,11.5,29.86,SSW,199,6.3,10.1,21,0.00,,---,0.00,VWS V14.01,2013-02-12 17:59:00,
2013-02-12 13:04:00,50.2,11.8,29.86,WSW,255,7.6,7.6,21,0.00,,---,0.00,VWS V14.01,2013-02-12 18:04:00,
2013-02-12 13:09:00,50.7,12.2,29.86,South,186,4.0,4.0,21,0.00,,---,0.00,VWS V14.01,2013-02-12 18:09:00,
2013-02-12 13:14:00,50.9,12.4,29.83,SSW,202,5.4,6.3,21,0.00,,---,0.00,VWS V14.01,2013-02-12 18:14:00,
2013-02-12 13:19:00,51.3,12.7,29.83,SSW,207,8.1,8.1,21,0.00,,---,0.00,VWS V14.01,2013-02-12 18:19:00,
2013-02-12 13:24:00,52.0,13.3,29.83,South,188,0.0,4.9,21,0.00,,---,0.00,VWS V14.01,2013-02-12 18:24:00,
2013-02-12 13:29:00,52.7,13.9,29.80,SSE,163,6.3,6.3,21,0.00,,---,0.00,VWS V14.01,2013-02-12 18:29:00,
2013-02-12 13:34:00,53.2,14.3,29.80,WSW,248,3.6,6.7,21,0.00,,---,0.00,VWS V14.01,2013-02-12 18:34:00,
2013-02-12 13:39:00,53.8,13.7,29.80,NNW,327,0.0,2.2,20,0.00,,---,0.00,VWS V14.01,2013-02-12 18:39:00,
2013-02-12 13:44:00,54.1,14.0,29.77,South,174,6.3,6.7,20,0.00,,---,0.00,VWS V14.01,2013-02-12 18:44:00,
2013-02-12 13:49:00,54.0,11.4,29.77,SSE,164,5.4,8.1,18,0.00,,---,0.00,VWS V14.01,2013-02-12 18:49:00,
2013-02-12 13:54:00,54.3,11.7,29.77,SSW,211,6.3,10.5,18,0.00,,---,0.00,VWS V14.01,2013-02-12 18:54:00,
2013-02-12 13:59:00,54.1,11.6,29.80,SW,221,3.1,3.1,18,0.00,,---,0.00,VWS V14.01,2013-02-12 18:59:00,
2013-02-12 14:04:00,53.8,11.3,29.80,ENE,62,2.2,2.2,18,0.00,,---,0.00,VWS V14.01,2013-02-12 19:04:00,
2013-02-12 14:09:00,53.1,10.7,29.80,SW,230,3.6,4.9,18,0.00,,---,0.00,VWS V14.01,2013-02-12 19:09:00,
2013-02-12 14:15:00,52.2,10.0,29.86,SW,216,4.9,8.1,18,0.00,,---,0.00,VWS V14.01,2013-02-12 19:15:00,
2013-02-12 14:20:00,52.0,9.8,29.86,SW,227,4.9,5.8,18,0.00,,---,0.00,VWS V14.01,2013-02-12 19:20:00,
2013-02-12 14:25:00,52.5,10.2,29.86,SSW,212,4.9,4.9,18,0.00,,---,0.00,VWS V14.01,2013-02-12 19:25:00,
2013-02-12 14:30:00,52.9,10.6,29.86,SSW,206,3.6,5.4,18,0.00,,---,0.00,VWS V14.01,2013-02-12 19:30:00,
2013-02-12 14:35:00,54.0,11.4,29.86,SW,229,5.8,5.8,18,0.00,,---,0.00,VWS V14.01,2013-02-12 19:35:00,
2013-02-12 14:40:00,54.7,12.0,29.86,SW,228,5.4,6.3,18,0.00,,---,0.00,VWS V14.01,2013-02-12 19:40:00,
2013-02-12 14:45:00,54.9,12.2,29.86,ENE,75,7.6,7.6,18,0.00,,---,0.00,VWS V14.01,2013-02-12 19:45:00,
2013-02-12 14:50:00,55.0,12.3,29.86,South,184,3.1,5.8,18,0.00,,---,0.00,VWS V14.01,2013-02-12 19:50:00,
2013-02-12 14:55:00,55.0,12.3,29.86,SW,224,4.0,5.8,18,0.00,,---,0.00,VWS V14.01,2013-02-12 19:55:00,
2013-02-12 15:00:00,54.9,12.2,29.86,SW,235,3.1,3.1,18,0.00,,---,0.00,VWS V14.01,2013-02-12 20:00:00,
2013-02-12 15:05:00,54.9,12.2,29.86,SW,224,5.8,5.8,18,0.00,,---,0.00,VWS V14.01,2013-02-12 20:05:00,
2013-02-12 15:10:00,54.9,12.2,29.86,NNW,328,8.1,8.1,18,0.00,,---,0.00,VWS V14.01,2013-02-12 20:10:00,
2013-02-12 15:15:00,54.7,12.0,29.86,SW,216,8.7,8.7,18,0.00,,---,0.00,VWS V14.01,2013-02-12 20:15:00,
2013-02-12 15:20:00,54.1,11.6,29.86,SSW,202,8.1,11.0,18,0.00,,---,0.00,VWS V14.01,2013-02-12 20:20:00,
2013-02-12 15:25:00,53.8,11.3,29.86,SW,224,6.3,7.6,18,0.00,,---,0.00,VWS V14.01,2013-02-12 20:25:00,
2013-02-12 15:30:00,53.8,11.3,29.86,SSW,212,5.4,8.7,18,0.00,,---,0.00,VWS V14.01,2013-02-12 20:30:00,
2013-02-12 15:35:00,54.0,11.4,29.86,WSW,255,3.6,8.3,18,0.00,,---,0.00,VWS V14.01,2013-02-12 20:35:00,
2013-02-12 15:40:00,54.0,11.4,29.86,SSW,201,6.3,6.3,18,0.00,,---,0.00,VWS V14.01,2013-02-12 20:40:00,
2013-02-12 15:45:00,53.2,10.9,29.86,SW,234,9.6,9.6,18,0.00,,---,0.00,VWS V14.01,2013-02-12 20:45:00,
2013-02-12 15:51:00,52.9,10.6,29.86,SW,230,5.8,8.3,18,0.00,,---,0.00,VWS V14.01,2013-02-12 20:51:00,
2013-02-12 15:56:00,53.1,10.7,29.86,SW,217,8.7,12.8,18,0.00,,---,0.00,VWS V14.01,2013-02-12 20:56:00,
2013-02-12 16:01:00,52.7,10.4,29.86,South,189,3.1,8.3,18,0.00,,---,0.00,VWS V14.01,2013-02-12 21:01:00,
2013-02-12 16:06:00,52.7,10.4,29.86,SSW,195,10.1,10.1,18,0.00,,---,0.00,VWS V14.01,2013-02-12 21:06:00,
2013-02-12 16:11:00,52.5,10.2,29.86,SW,224,8.3,8.7,18,0.00,,---,0.00,VWS V14.01,2013-02-12 21:11:00,
2013-02-12 16:16:00,52.2,10.0,29.86,SW,224,4.0,4.0,18,0.00,,---,0.00,VWS V14.01,2013-02-12 21:16:00,
2013-02-12 16:21:00,52.0,9.8,29.86,SSW,210,2.7,5.8,18,0.00,,---,0.00,VWS V14.01,2013-02-12 21:21:00,
2013-02-12 16:26:00,51.4,10.6,29.86,SW,233,3.1,4.0,19,0.00,,---,0.00,VWS V14.01,2013-02-12 21:26:00,
2013-02-12 16:31:00,50.9,10.1,29.86,SW,218,3.6,5.8,19,0.00,,---,0.00,VWS V14.01,2013-02-12 21:31:00,
2013-02-12 16:36:00,50.4,9.7,29.86,SW,223,3.1,4.0,19,0.00,,---,0.00,VWS V14.01,2013-02-12 21:36:00,
2013-02-12 16:41:00,50.0,9.4,29.89,SW,217,3.6,4.0,19,0.00,,---,0.00,VWS V14.01,2013-02-12 21:41:00,
2013-02-12 16:46:00,49.8,9.2,29.89,SW,225,5.8,5.8,19,0.00,,---,0.00,VWS V14.01,2013-02-12 21:46:00,
2013-02-12 16:51:00,49.5,8.9,29.89,SSW,197,4.0,4.0,19,0.00,,---,0.00,VWS V14.01,2013-02-12 21:51:00,
2013-02-12 16:56:00,49.3,8.8,29.89,SSW,197,0.0,0.0,19,0.00,,---,0.00,VWS V14.01,2013-02-12 21:56:00,
2013-02-12 17:01:00,48.9,8.5,29.89,SSW,200,0.0,0.0,19,0.00,,---,0.00,VWS V14.01,2013-02-12 22:01:00,
2013-02-12 17:06:00,48.7,8.3,29.89,SW,218,2.7,3.1,19,0.00,,---,0.00,VWS V14.01,2013-02-12 22:06:00,
2013-02-12 17:11:00,48.6,8.2,29.89,SSW,206,3.6,4.0,19,0.00,,---,0.00,VWS V14.01,2013-02-12 22:11:00,
2013-02-12 17:16:00,48.4,8.0,29.89,WSW,245,4.9,5.4,19,0.00,,---,0.00,VWS V14.01,2013-02-12 22:16:00,
2013-02-12 17:21:00,48.2,7.9,29.89,SSW,209,3.6,4.0,19,0.00,,---,0.00,VWS V14.01,2013-02-12 22:21:00,
2013-02-12 17:26:00,47.8,7.6,29.89,ENE,76,0.0,0.0,19,0.00,,---,0.00,VWS V14.01,2013-02-12 22:26:00,
2013-02-12 17:31:00,47.7,7.4,29.89,SW,230,2.2,2.7,19,0.00,,---,0.00,VWS V14.01,2013-02-12 22:31:00,
2013-02-12 17:37:00,47.5,7.3,29.89,South,175,4.9,4.9,19,0.00,,---,0.00,VWS V14.01,2013-02-12 22:37:00,
2013-02-12 17:42:00,47.1,7.0,29.89,East,96,0.0,0.0,19,0.00,,---,0.00,VWS V14.01,2013-02-12 22:42:00,
2013-02-12 17:47:00,46.8,6.7,29.89,East,96,0.0,0.0,19,0.00,,---,0.00,VWS V14.01,2013-02-12 22:47:00,
2013-02-12 17:52:00,46.0,7.2,29.89,East,96,0.0,0.0,20,0.00,,---,0.00,VWS V14.01,2013-02-12 22:52:00,
2013-02-12 17:57:00,45.5,6.8,29.89,SE,142,0.0,2.2,20,0.00,,---,0.00,VWS V14.01,2013-02-12 22:57:00,
2013-02-12 18:02:00,45.1,6.5,29.89,West,275,0.0,0.0,20,0.00,,---,0.00,VWS V14.01,2013-02-12 23:02:00,
2013-02-12 18:07:00,44.6,6.0,29.89,West,275,0.0,0.0,20,0.00,,---,0.00,VWS V14.01,2013-02-12 23:07:00,
2013-02-12 18:12:00,44.1,5.6,29.89,West,275,0.0,0.0,20,0.00,,---,0.00,VWS V14.01,2013-02-12 23:12:00,
2013-02-12 18:17:00,43.9,8.5,29.89,WSW,239,0.0,0.0,23,0.00,,---,0.00,VWS V14.01,2013-02-12 23:17:00,
2013-02-12 18:22:00,43.7,8.3,29.89,SSW,198,0.0,0.0,23,0.00,,---,0.00,VWS V14.01,2013-02-12 23:22:00,
2013-02-12 18:27:00,43.5,8.2,29.86,SSW,198,0.0,0.0,23,0.00,,---,0.00,VWS V14.01,2013-02-12 23:27:00,
2013-02-12 18:32:00,43.3,8.0,29.86,SSW,198,0.0,0.0,23,0.00,,---,0.00,VWS V14.01,2013-02-12 23:32:00,
2013-02-12 18:37:00,43.0,7.7,29.86,SSW,198,0.0,0.0,23,0.00,,---,0.00,VWS V14.01,2013-02-12 23:37:00,
2013-02-12 18:42:00,42.4,10.0,29.86,SSW,198,0.0,0.0,26,0.00,,---,0.00,VWS V14.01,2013-02-12 23:42:00,
2013-02-12 18:47:00,42.1,9.7,29.86,SSW,198,0.0,0.0,26,0.00,,---,0.00,VWS V14.01,2013-02-12 23:47:00,
2013-02-12 18:52:00,41.9,9.5,29.86,NE,42,0.0,0.0,26,0.00,,---,0.00,VWS V14.01,2013-02-12 23:52:00,
2013-02-12 18:57:00,42.1,9.7,29.86,ESE,102,0.0,2.2,26,0.00,,---,0.00,VWS V14.01,2013-02-12 23:57:00,
2013-02-12 19:02:00,42.1,9.7,29.86,ENE,60,0.0,0.0,26,0.00,,---,0.00,VWS V14.01,2013-02-13 00:02:00,
2013-02-12 19:07:00,41.9,9.5,29.86,WSW,243,0.0,3.6,26,0.00,,---,0.00,VWS V14.01,2013-02-13 00:07:00,
2013-02-12 19:12:00,42.1,9.7,29.86,WSW,242,0.0,0.0,26,0.00,,---,0.00,VWS V14.01,2013-02-13 00:12:00,
2013-02-12 19:18:00,41.9,9.5,29.86,WSW,243,0.0,0.0,26,0.00,,---,0.00,VWS V14.01,2013-02-13 00:18:00,
2013-02-12 19:23:00,41.7,11.0,29.86,WSW,244,0.0,0.0,28,0.00,,---,0.00,VWS V14.01,2013-02-13 00:23:00,
2013-02-12 19:28:00,41.2,10.6,29.83,WSW,244,0.0,0.0,28,0.00,,---,0.00,VWS V14.01,2013-02-13 00:28:00,
2013-02-12 19:33:00,40.8,10.2,29.83,WSW,253,2.7,2.7,28,0.00,,---,0.00,VWS V14.01,2013-02-13 00:33:00,
2013-02-12 19:38:00,40.6,10.1,29.83,NE,35,2.2,2.2,28,0.00,,---,0.00,VWS V14.01,2013-02-13 00:38:00,
2013-02-12 19:43:00,40.3,10.6,29.83,NE,35,2.7,2.7,29,0.00,,---,0.00,VWS V14.01,2013-02-13 00:43:00,
2013-02-12 19:48:00,40.1,10.4,29.83,NE,35,2.2,2.7,29,0.00,,---,0.00,VWS V14.01,2013-02-13 00:48:00,
2013-02-12 19:53:00,39.9,10.2,29.83,NE,35,2.7,2.7,29,0.00,,---,0.00,VWS V14.01,2013-02-13 00:53:00,
2013-02-12 19:58:00,39.9,10.2,29.83,NE,35,0.0,0.0,29,0.00,,---,0.00,VWS V14.01,2013-02-13 00:58:00,
2013-02-12 20:03:00,39.9,10.2,29.83,NE,35,0.0,0.0,29,0.00,,---,0.00,VWS V14.01,2013-02-13 01:03:00,
2013-02-12 20:08:00,39.9,10.2,29.83,NE,35,0.0,0.0,29,0.00,,---,0.00,VWS V14.01,2013-02-13 01:08:00,
2013-02-12 20:13:00,39.9,10.2,29.83,NE,35,0.0,0.0,29,0.00,,---,0.00,VWS V14.01,2013-02-13 01:13:00,
2013-02-12 20:18:00,39.9,10.2,29.83,NE,35,0.0,0.0,29,0.00,,---,0.00,VWS V14.01,2013-02-13 01:18:00,
2013-02-12 20:23:00,39.7,10.9,29.83,NE,35,0.0,0.0,30,0.00,,---,0.00,VWS V14.01,2013-02-13 01:23:00,
2013-02-12 20:28:00,39.6,10.7,29.86,NE,35,0.0,0.0,30,0.00,,---,0.00,VWS V14.01,2013-02-13 01:28:00,
2013-02-12 20:33:00,39.7,10.9,29.86,NE,35,0.0,0.0,30,0.00,,---,0.00,VWS V14.01,2013-02-13 01:33:00,
2013-02-12 20:38:00,39.7,10.9,29.86,NE,35,0.0,0.0,30,0.00,,---,0.00,VWS V14.01,2013-02-13 01:38:00,
2013-02-12 20:43:00,39.7,10.9,29.86,NE,35,3.6,3.6,30,0.00,,---,0.00,VWS V14.01,2013-02-13 01:43:00,
2013-02-12 20:48:00,39.7,10.9,29.86,NE,35,3.1,3.1,30,0.00,,---,0.00,VWS V14.01,2013-02-13 01:48:00,
2013-02-12 20:53:00,39.7,10.9,29.86,NE,35,2.7,2.7,30,0.00,,---,0.00,VWS V14.01,2013-02-13 01:53:00,
2013-02-12 20:58:00,39.7,10.9,29.86,NE,35,0.0,0.0,30,0.00,,---,0.00,VWS V14.01,2013-02-13 01:58:00,
2013-02-12 21:03:00,39.7,10.9,29.86,NE,35,0.0,0.0,30,0.00,,---,0.00,VWS V14.01,2013-02-13 02:03:00,
2013-02-12 21:08:00,39.7,10.9,29.86,NE,35,0.0,0.0,30,0.00,,---,0.00,VWS V14.01,2013-02-13 02:08:00,
2013-02-12 21:13:00,39.6,10.7,29.86,NE,35,0.0,0.0,30,0.00,,---,0.00,VWS V14.01,2013-02-13 02:13:00,
2013-02-12 21:18:00,39.4,10.5,29.86,NE,35,0.0,0.0,30,0.00,,---,0.00,VWS V14.01,2013-02-13 02:18:00,
2013-02-12 21:23:00,39.4,10.5,29.86,NE,35,0.0,0.0,30,0.00,,---,0.00,VWS V14.01,2013-02-13 02:23:00,
2013-02-12 21:28:00,39.2,10.4,29.86,NE,35,0.0,0.0,30,0.00,,---,0.00,VWS V14.01,2013-02-13 02:28:00,
2013-02-12 21:33:00,39.2,10.4,29.86,NE,35,0.0,2.2,30,0.00,,---,0.00,VWS V14.01,2013-02-13 02:33:00,
2013-02-12 21:39:00,39.2,10.4,29.86,NE,35,0.0,0.0,30,0.00,,---,0.00,VWS V14.01,2013-02-13 02:39:00,
2013-02-12 21:44:00,39.2,10.4,29.86,NE,35,0.0,2.7,30,0.00,,---,0.00,VWS V14.01,2013-02-13 02:44:00,
2013-02-12 21:49:00,39.2,10.4,29.86,NE,35,0.0,0.0,30,0.00,,---,0.00,VWS V14.01,2013-02-13 02:49:00,
2013-02-12 21:54:00,39.0,11.0,29.86,NE,35,0.0,0.0,31,0.00,,---,0.00,VWS V14.01,2013-02-13 02:54:00,
2013-02-12 21:59:00,39.0,11.0,29.86,NE,35,2.7,3.1,31,0.00,,---,0.00,VWS V14.01,2013-02-13 02:59:00,
2013-02-12 22:04:00,39.0,11.0,29.86,NE,36,3.1,3.1,31,0.00,,---,0.00,VWS V14.01,2013-02-13 03:04:00,
2013-02-12 22:09:00,39.0,11.0,29.86,NE,36,2.7,2.7,31,0.00,,---,0.00,VWS V14.01,2013-02-13 03:09:00,
2013-02-12 22:14:00,38.8,10.8,29.86,NE,36,0.0,0.0,31,0.00,,---,0.00,VWS V14.01,2013-02-13 03:14:00,
2013-02-12 22:19:00,38.8,10.8,29.86,NE,36,0.0,0.0,31,0.00,,---,0.00,VWS V14.01,2013-02-13 03:19:00,
2013-02-12 22:24:00,38.7,10.6,29.86,NE,36,2.7,2.7,31,0.00,,---,0.00,VWS V14.01,2013-02-13 03:24:00,
2013-02-12 22:29:00,38.7,10.6,29.86,NE,36,3.1,3.1,31,0.00,,---,0.00,VWS V14.01,2013-02-13 03:29:00,
2013-02-12 22:34:00,38.5,10.5,29.86,NE,36,2.7,2.7,31,0.00,,---,0.00,VWS V14.01,2013-02-13 03:34:00,
2013-02-12 22:39:00,38.5,11.2,29.86,NE,36,2.2,2.2,32,0.00,,---,0.00,VWS V14.01,2013-02-13 03:39:00,
2013-02-12 22:44:00,38.5,11.2,29.86,NE,36,3.1,3.1,32,0.00,,---,0.00,VWS V14.01,2013-02-13 03:44:00,
2013-02-12 22:49:00,38.3,11.0,29.86,NE,36,2.7,2.7,32,0.00,,---,0.00,VWS V14.01,2013-02-13 03:49:00,
2013-02-12 22:54:00,38.3,11.0,29.86,NE,36,2.7,2.7,32,0.00,,---,0.00,VWS V14.01,2013-02-13 03:54:00,
2013-02-12 22:59:00,38.1,10.9,29.86,NE,36,3.1,3.6,32,0.00,,---,0.00,VWS V14.01,2013-02-13 03:59:00,
2013-02-12 23:04:00,37.9,10.7,29.86,NE,36,4.0,4.0,32,0.00,,---,0.00,VWS V14.01,2013-02-13 04:04:00,
2013-02-12 23:09:00,37.9,10.7,29.86,NE,39,3.1,3.6,32,0.00,,---,0.00,VWS V14.01,2013-02-13 04:09:00,
2013-02-12 23:14:00,37.8,10.6,29.83,NE,41,0.0,0.0,32,0.00,,---,0.00,VWS V14.01,2013-02-13 04:14:00,
2013-02-12 23:19:00,37.6,11.1,29.83,NE,41,0.0,0.0,33,0.00,,---,0.00,VWS V14.01,2013-02-13 04:19:00,
2013-02-12 23:24:00,37.0,11.3,29.83,NE,41,0.0,0.0,34,0.00,,---,0.00,VWS V14.01,2013-02-13 04:24:00,
2013-02-12 23:29:00,36.9,11.1,29.83,NE,41,0.0,0.0,34,0.00,,---,0.00,VWS V14.01,2013-02-13 04:29:00,
2013-02-12 23:35:00,36.9,11.1,29.83,NE,41,2.7,2.7,34,0.00,,---,0.00,VWS V14.01,2013-02-13 04:35:00,
2013-02-12 23:40:00,36.9,11.1,29.83,NE,41,2.2,2.7,34,0.00,,---,0.00,VWS V14.01,2013-02-13 04:40:00,
2013-02-12 23:45:00,36.9,11.1,29.86,NE,41,2.2,2.2,34,0.00,,---,0.00,VWS V14.01,2013-02-13 04:45:00,
2013-02-12 23:50:00,36.7,11.0,29.86,NE,41,3.6,4.0,34,0.00,,---,0.00,VWS V14.01,2013-02-13 04:50:00,
2013-02-12 23:55:00,36.7,11.0,29.86,NE,41,3.6,4.0,34,0.00,,---,0.00,VWS V14.01,2013-02-13 04:55:00,